sensor_id;sensor_type;location;lat;lon;timestamp;P1;durP1;ratioP1;P2;durP2;ratioP2
31043;SDS011;17710;52.520;13.352;2024-03-08T00:02:16;36.83;;;18.10;;
31043;SDS011;17710;52.520;13.352;2024-03-08T00:04:44;32.78;;;16.48;;
31043;SDS011;17710;52.520;13.352;2024-03-08T00:07:11;37.10;;;17.48;;
31043;SDS011;17710;52.520;13.352;2024-03-08T00:09:38;40.08;;;17.17;;
31043;SDS011;17710;52.520;13.352;2024-03-08T00:12:06;34.22;;;17.60;;
31043;SDS011;17710;52.520;13.352;2024-03-08T00:14:33;36.05;;;17.65;;
31043;SDS011;17710;52.520;13.352;2024-03-08T00:17:00;34.20;;;18.55;;
31043;SDS011;17710;52.520;13.352;2024-03-08T00:19:27;34.85;;;18.08;;
31043;SDS011;17710;52.520;13.352;2024-03-08T00:21:53;35.47;;;17.75;;
31043;SDS011;17710;52.520;13.352;2024-03-08T00:24:20;33.08;;;18.50;;
31043;SDS011;17710;52.520;13.352;2024-03-08T00:26:50;35.75;;;17.15;;
31043;SDS011;17710;52.520;13.352;2024-03-08T00:29:17;35.38;;;18.42;;
31043;SDS011;17710;52.520;13.352;2024-03-08T00:31:44;38.88;;;18.40;;
31043;SDS011;17710;52.520;13.352;2024-03-08T00:34:10;36.30;;;17.90;;
31043;SDS011;17710;52.520;13.352;2024-03-08T00:36:37;36.95;;;17.98;;
31043;SDS011;17710;52.520;13.352;2024-03-08T00:39:04;34.78;;;17.17;;
31043;SDS011;17710;52.520;13.352;2024-03-08T00:41:31;32.70;;;16.65;;
31043;SDS011;17710;52.520;13.352;2024-03-08T00:43:58;37.75;;;18.63;;
31043;SDS011;17710;52.520;13.352;2024-03-08T00:46:26;35.47;;;18.08;;
31043;SDS011;17710;52.520;13.352;2024-03-08T00:48:53;41.58;;;18.15;;
31043;SDS011;17710;52.520;13.352;2024-03-08T00:51:21;35.22;;;18.52;;
31043;SDS011;17710;52.520;13.352;2024-03-08T00:53:47;34.55;;;17.23;;
31043;SDS011;17710;52.520;13.352;2024-03-08T00:56:13;37.22;;;18.35;;
31043;SDS011;17710;52.520;13.352;2024-03-08T00:58:40;37.42;;;17.80;;
31043;SDS011;17710;52.520;13.352;2024-03-08T01:01:06;34.33;;;17.90;;
31043;SDS011;17710;52.520;13.352;2024-03-08T01:03:35;37.67;;;18.67;;
31043;SDS011;17710;52.520;13.352;2024-03-08T01:06:01;38.28;;;18.92;;
31043;SDS011;17710;52.520;13.352;2024-03-08T01:08:29;36.95;;;18.95;;
31043;SDS011;17710;52.520;13.352;2024-03-08T01:10:55;35.50;;;17.83;;
31043;SDS011;17710;52.520;13.352;2024-03-08T01:13:22;36.53;;;18.25;;
31043;SDS011;17710;52.520;13.352;2024-03-08T01:15:48;37.90;;;19.15;;
31043;SDS011;17710;52.520;13.352;2024-03-08T01:18:15;35.75;;;18.05;;
31043;SDS011;17710;52.520;13.352;2024-03-08T01:23:08;33.30;;;17.05;;
31043;SDS011;17710;52.520;13.352;2024-03-08T01:25:34;41.08;;;18.15;;
31043;SDS011;17710;52.520;13.352;2024-03-08T01:28:01;40.75;;;18.10;;
31043;SDS011;17710;52.520;13.352;2024-03-08T01:30:27;37.40;;;17.85;;
31043;SDS011;17710;52.520;13.352;2024-03-08T01:32:53;35.97;;;18.58;;
31043;SDS011;17710;52.520;13.352;2024-03-08T01:35:20;35.75;;;17.58;;
31043;SDS011;17710;52.520;13.352;2024-03-08T01:37:48;34.35;;;17.83;;
31043;SDS011;17710;52.520;13.352;2024-03-08T01:40:15;35.55;;;18.42;;
31043;SDS011;17710;52.520;13.352;2024-03-08T01:42:42;35.42;;;18.42;;
31043;SDS011;17710;52.520;13.352;2024-03-08T01:45:09;34.65;;;18.02;;
31043;SDS011;17710;52.520;13.352;2024-03-08T01:47:36;34.33;;;17.60;;
31043;SDS011;17710;52.520;13.352;2024-03-08T01:50:03;39.33;;;17.80;;
31043;SDS011;17710;52.520;13.352;2024-03-08T01:52:31;38.63;;;18.30;;
31043;SDS011;17710;52.520;13.352;2024-03-08T01:55:00;37.38;;;17.73;;
31043;SDS011;17710;52.520;13.352;2024-03-08T01:57:28;37.78;;;18.83;;
31043;SDS011;17710;52.520;13.352;2024-03-08T01:59:58;36.35;;;18.05;;
31043;SDS011;17710;52.520;13.352;2024-03-08T02:02:28;34.08;;;17.13;;
31043;SDS011;17710;52.520;13.352;2024-03-08T02:04:56;42.42;;;18.48;;
31043;SDS011;17710;52.520;13.352;2024-03-08T02:07:23;40.95;;;18.48;;
31043;SDS011;17710;52.520;13.352;2024-03-08T02:09:49;37.53;;;18.38;;
31043;SDS011;17710;52.520;13.352;2024-03-08T02:12:17;39.63;;;17.75;;
31043;SDS011;17710;52.520;13.352;2024-03-08T02:14:45;40.83;;;17.92;;
31043;SDS011;17710;52.520;13.352;2024-03-08T02:17:12;40.00;;;18.90;;
31043;SDS011;17710;52.520;13.352;2024-03-08T02:19:38;40.60;;;17.92;;
31043;SDS011;17710;52.520;13.352;2024-03-08T02:22:06;35.65;;;18.15;;
31043;SDS011;17710;52.520;13.352;2024-03-08T02:24:33;38.47;;;18.50;;
31043;SDS011;17710;52.520;13.352;2024-03-08T02:27:01;39.00;;;17.48;;
31043;SDS011;17710;52.520;13.352;2024-03-08T02:29:27;42.33;;;18.65;;
31043;SDS011;17710;52.520;13.352;2024-03-08T02:31:54;34.53;;;17.77;;
31043;SDS011;17710;52.520;13.352;2024-03-08T02:34:20;38.30;;;18.35;;
31043;SDS011;17710;52.520;13.352;2024-03-08T02:36:47;39.15;;;18.92;;
31043;SDS011;17710;52.520;13.352;2024-03-08T02:39:15;39.40;;;19.02;;
31043;SDS011;17710;52.520;13.352;2024-03-08T02:41:41;36.95;;;17.95;;
31043;SDS011;17710;52.520;13.352;2024-03-08T02:44:08;39.33;;;18.80;;
31043;SDS011;17710;52.520;13.352;2024-03-08T02:46:34;39.65;;;18.42;;
31043;SDS011;17710;52.520;13.352;2024-03-08T02:49:01;40.25;;;19.42;;
31043;SDS011;17710;52.520;13.352;2024-03-08T02:51:28;39.95;;;18.42;;
31043;SDS011;17710;52.520;13.352;2024-03-08T02:53:56;37.53;;;17.67;;
31043;SDS011;17710;52.520;13.352;2024-03-08T02:56:23;35.60;;;17.10;;
31043;SDS011;17710;52.520;13.352;2024-03-08T02:58:51;38.20;;;17.83;;
31043;SDS011;17710;52.520;13.352;2024-03-08T03:01:18;35.50;;;17.48;;
31043;SDS011;17710;52.520;13.352;2024-03-08T03:03:45;40.60;;;18.75;;
31043;SDS011;17710;52.520;13.352;2024-03-08T03:06:13;42.92;;;18.02;;
31043;SDS011;17710;52.520;13.352;2024-03-08T03:08:40;41.38;;;18.30;;
31043;SDS011;17710;52.520;13.352;2024-03-08T03:11:09;37.53;;;18.17;;
31043;SDS011;17710;52.520;13.352;2024-03-08T03:13:37;37.95;;;18.48;;
31043;SDS011;17710;52.520;13.352;2024-03-08T03:16:03;36.85;;;18.45;;
31043;SDS011;17710;52.520;13.352;2024-03-08T03:18:30;42.20;;;19.23;;
31043;SDS011;17710;52.520;13.352;2024-03-08T03:20:57;38.38;;;18.88;;
31043;SDS011;17710;52.520;13.352;2024-03-08T03:23:24;41.67;;;19.55;;
31043;SDS011;17710;52.520;13.352;2024-03-08T03:25:51;37.33;;;18.13;;
31043;SDS011;17710;52.520;13.352;2024-03-08T03:28:18;40.45;;;18.25;;
31043;SDS011;17710;52.520;13.352;2024-03-08T03:30:48;39.72;;;18.80;;
31043;SDS011;17710;52.520;13.352;2024-03-08T03:33:14;40.17;;;19.45;;
31043;SDS011;17710;52.520;13.352;2024-03-08T03:35:41;38.17;;;18.05;;
31043;SDS011;17710;52.520;13.352;2024-03-08T03:38:09;40.38;;;19.35;;
31043;SDS011;17710;52.520;13.352;2024-03-08T03:40:35;43.97;;;19.08;;
31043;SDS011;17710;52.520;13.352;2024-03-08T03:43:03;40.67;;;20.20;;
31043;SDS011;17710;52.520;13.352;2024-03-08T03:45:29;43.67;;;19.63;;
31043;SDS011;17710;52.520;13.352;2024-03-08T03:48:01;40.58;;;19.83;;
31043;SDS011;17710;52.520;13.352;2024-03-08T03:50:28;38.30;;;18.70;;
31043;SDS011;17710;52.520;13.352;2024-03-08T03:52:54;42.08;;;19.45;;
31043;SDS011;17710;52.520;13.352;2024-03-08T03:55:20;39.42;;;19.35;;
31043;SDS011;17710;52.520;13.352;2024-03-08T03:57:47;40.60;;;19.70;;
31043;SDS011;17710;52.520;13.352;2024-03-08T04:00:14;38.78;;;18.63;;
31043;SDS011;17710;52.520;13.352;2024-03-08T04:02:41;44.33;;;18.80;;
31043;SDS011;17710;52.520;13.352;2024-03-08T04:05:09;41.65;;;19.27;;
31043;SDS011;17710;52.520;13.352;2024-03-08T04:07:36;43.92;;;20.15;;
31043;SDS011;17710;52.520;13.352;2024-03-08T04:10:04;41.55;;;20.55;;
31043;SDS011;17710;52.520;13.352;2024-03-08T04:12:32;43.97;;;20.52;;
31043;SDS011;17710;52.520;13.352;2024-03-08T04:14:58;62.40;;;28.67;;
31043;SDS011;17710;52.520;13.352;2024-03-08T04:17:25;44.50;;;19.17;;
31043;SDS011;17710;52.520;13.352;2024-03-08T04:19:51;40.80;;;19.52;;
31043;SDS011;17710;52.520;13.352;2024-03-08T04:22:19;48.78;;;20.20;;
31043;SDS011;17710;52.520;13.352;2024-03-08T04:24:46;42.33;;;20.30;;
31043;SDS011;17710;52.520;13.352;2024-03-08T04:27:12;46.63;;;20.65;;
31043;SDS011;17710;52.520;13.352;2024-03-08T04:29:39;45.72;;;20.60;;
31043;SDS011;17710;52.520;13.352;2024-03-08T04:32:06;42.08;;;20.85;;
31043;SDS011;17710;52.520;13.352;2024-03-08T04:34:33;41.67;;;20.33;;
31043;SDS011;17710;52.520;13.352;2024-03-08T04:37:00;43.55;;;20.23;;
31043;SDS011;17710;52.520;13.352;2024-03-08T04:39:28;44.70;;;20.33;;
31043;SDS011;17710;52.520;13.352;2024-03-08T04:41:55;46.50;;;21.23;;
31043;SDS011;17710;52.520;13.352;2024-03-08T04:44:24;43.13;;;21.52;;
31043;SDS011;17710;52.520;13.352;2024-03-08T04:46:50;42.67;;;21.13;;
31043;SDS011;17710;52.520;13.352;2024-03-08T04:49:17;43.17;;;19.33;;
31043;SDS011;17710;52.520;13.352;2024-03-08T04:51:43;50.65;;;21.58;;
31043;SDS011;17710;52.520;13.352;2024-03-08T04:54:11;46.33;;;21.73;;
31043;SDS011;17710;52.520;13.352;2024-03-08T04:56:39;43.97;;;21.58;;
31043;SDS011;17710;52.520;13.352;2024-03-08T04:59:05;44.25;;;20.92;;
31043;SDS011;17710;52.520;13.352;2024-03-08T05:01:33;45.67;;;20.83;;
31043;SDS011;17710;52.520;13.352;2024-03-08T05:04:01;41.55;;;20.98;;
31043;SDS011;17710;52.520;13.352;2024-03-08T05:06:28;45.38;;;21.65;;
31043;SDS011;17710;52.520;13.352;2024-03-08T05:08:55;49.13;;;21.63;;
31043;SDS011;17710;52.520;13.352;2024-03-08T05:11:21;42.35;;;20.70;;
31043;SDS011;17710;52.520;13.352;2024-03-08T05:13:49;48.63;;;22.17;;
31043;SDS011;17710;52.520;13.352;2024-03-08T05:16:15;47.13;;;21.05;;
31043;SDS011;17710;52.520;13.352;2024-03-08T05:18:42;53.30;;;22.73;;
31043;SDS011;17710;52.520;13.352;2024-03-08T05:21:09;44.63;;;21.40;;
31043;SDS011;17710;52.520;13.352;2024-03-08T05:23:35;48.67;;;22.00;;
31043;SDS011;17710;52.520;13.352;2024-03-08T05:26:03;46.58;;;21.08;;
31043;SDS011;17710;52.520;13.352;2024-03-08T05:28:30;47.13;;;22.50;;
31043;SDS011;17710;52.520;13.352;2024-03-08T05:30:57;48.45;;;23.17;;
31043;SDS011;17710;52.520;13.352;2024-03-08T05:33:24;46.80;;;22.38;;
31043;SDS011;17710;52.520;13.352;2024-03-08T05:35:50;43.92;;;21.83;;
31043;SDS011;17710;52.520;13.352;2024-03-08T05:38:17;44.13;;;22.02;;
31043;SDS011;17710;52.520;13.352;2024-03-08T05:40:45;40.55;;;20.13;;
31043;SDS011;17710;52.520;13.352;2024-03-08T05:43:11;55.08;;;24.58;;
31043;SDS011;17710;52.520;13.352;2024-03-08T05:45:38;46.35;;;21.85;;
31043;SDS011;17710;52.520;13.352;2024-03-08T05:48:06;50.08;;;23.67;;
31043;SDS011;17710;52.520;13.352;2024-03-08T05:50:33;50.65;;;23.23;;
31043;SDS011;17710;52.520;13.352;2024-03-08T05:53:00;48.30;;;21.98;;
31043;SDS011;17710;52.520;13.352;2024-03-08T05:55:26;51.40;;;23.52;;
31043;SDS011;17710;52.520;13.352;2024-03-08T05:57:54;49.47;;;23.25;;
31043;SDS011;17710;52.520;13.352;2024-03-08T06:00:21;45.58;;;22.13;;
31043;SDS011;17710;52.520;13.352;2024-03-08T06:02:49;49.38;;;23.02;;
31043;SDS011;17710;52.520;13.352;2024-03-08T06:05:18;45.53;;;21.88;;
31043;SDS011;17710;52.520;13.352;2024-03-08T06:07:44;49.15;;;21.95;;
31043;SDS011;17710;52.520;13.352;2024-03-08T06:10:11;51.08;;;22.63;;
31043;SDS011;17710;52.520;13.352;2024-03-08T06:12:38;47.20;;;23.35;;
31043;SDS011;17710;52.520;13.352;2024-03-08T06:15:06;45.78;;;22.25;;
31043;SDS011;17710;52.520;13.352;2024-03-08T06:17:33;50.78;;;23.17;;
31043;SDS011;17710;52.520;13.352;2024-03-08T06:20:00;55.08;;;23.27;;
31043;SDS011;17710;52.520;13.352;2024-03-08T06:22:28;51.80;;;23.63;;
31043;SDS011;17710;52.520;13.352;2024-03-08T06:24:55;52.17;;;23.60;;
31043;SDS011;17710;52.520;13.352;2024-03-08T06:27:22;47.53;;;21.38;;
31043;SDS011;17710;52.520;13.352;2024-03-08T06:29:48;49.05;;;21.85;;
31043;SDS011;17710;52.520;13.352;2024-03-08T06:32:15;54.25;;;23.15;;
31043;SDS011;17710;52.520;13.352;2024-03-08T06:34:41;51.75;;;23.40;;
31043;SDS011;17710;52.520;13.352;2024-03-08T06:37:08;50.92;;;22.85;;
31043;SDS011;17710;52.520;13.352;2024-03-08T06:39:35;45.17;;;21.30;;
31043;SDS011;17710;52.520;13.352;2024-03-08T06:42:02;45.08;;;22.55;;
31043;SDS011;17710;52.520;13.352;2024-03-08T06:44:29;50.90;;;22.58;;
31043;SDS011;17710;52.520;13.352;2024-03-08T06:46:56;45.65;;;20.40;;
31043;SDS011;17710;52.520;13.352;2024-03-08T06:49:23;44.17;;;22.17;;
31043;SDS011;17710;52.520;13.352;2024-03-08T06:51:51;45.17;;;21.85;;
31043;SDS011;17710;52.520;13.352;2024-03-08T06:54:18;45.47;;;21.98;;
31043;SDS011;17710;52.520;13.352;2024-03-08T06:56:46;49.55;;;23.63;;
31043;SDS011;17710;52.520;13.352;2024-03-08T06:59:13;54.25;;;23.25;;
31043;SDS011;17710;52.520;13.352;2024-03-08T07:01:39;48.97;;;22.40;;
31043;SDS011;17710;52.520;13.352;2024-03-08T07:04:05;51.65;;;22.52;;
31043;SDS011;17710;52.520;13.352;2024-03-08T07:06:33;47.17;;;22.08;;
31043;SDS011;17710;52.520;13.352;2024-03-08T07:08:59;44.22;;;22.63;;
31043;SDS011;17710;52.520;13.352;2024-03-08T07:11:27;45.92;;;22.58;;
31043;SDS011;17710;52.520;13.352;2024-03-08T07:13:55;45.13;;;22.40;;
31043;SDS011;17710;52.520;13.352;2024-03-08T07:16:22;46.67;;;22.38;;
31043;SDS011;17710;52.520;13.352;2024-03-08T07:18:49;43.30;;;21.38;;
31043;SDS011;17710;52.520;13.352;2024-03-08T07:21:17;46.65;;;21.60;;
31043;SDS011;17710;52.520;13.352;2024-03-08T07:23:44;53.47;;;21.77;;
31043;SDS011;17710;52.520;13.352;2024-03-08T07:26:28;49.42;;;21.52;;
31043;SDS011;17710;52.520;13.352;2024-03-08T07:28:56;48.65;;;23.17;;
31043;SDS011;17710;52.520;13.352;2024-03-08T07:31:25;42.45;;;21.05;;
31043;SDS011;17710;52.520;13.352;2024-03-08T07:34:03;47.47;;;21.33;;
31043;SDS011;17710;52.520;13.352;2024-03-08T07:36:32;46.00;;;21.48;;
31043;SDS011;17710;52.520;13.352;2024-03-08T07:38:59;41.42;;;20.65;;
31043;SDS011;17710;52.520;13.352;2024-03-08T07:41:25;40.60;;;20.33;;
31043;SDS011;17710;52.520;13.352;2024-03-08T07:43:52;45.33;;;20.80;;
31043;SDS011;17710;52.520;13.352;2024-03-08T07:46:20;42.88;;;20.85;;
31043;SDS011;17710;52.520;13.352;2024-03-08T07:48:48;46.13;;;21.42;;
31043;SDS011;17710;52.520;13.352;2024-03-08T07:51:15;41.92;;;19.77;;
31043;SDS011;17710;52.520;13.352;2024-03-08T07:53:42;44.10;;;20.58;;
31043;SDS011;17710;52.520;13.352;2024-03-08T07:56:09;46.03;;;20.83;;
31043;SDS011;17710;52.520;13.352;2024-03-08T07:58:38;40.72;;;20.15;;
31043;SDS011;17710;52.520;13.352;2024-03-08T08:01:06;39.15;;;19.88;;
31043;SDS011;17710;52.520;13.352;2024-03-08T08:03:34;45.33;;;20.05;;
31043;SDS011;17710;52.520;13.352;2024-03-08T08:06:03;47.53;;;21.40;;
31043;SDS011;17710;52.520;13.352;2024-03-08T08:08:29;43.42;;;22.92;;
31043;SDS011;17710;52.520;13.352;2024-03-08T08:10:57;53.60;;;25.15;;
31043;SDS011;17710;52.520;13.352;2024-03-08T08:13:23;54.05;;;24.92;;
31043;SDS011;17710;52.520;13.352;2024-03-08T08:15:50;47.85;;;24.98;;
31043;SDS011;17710;52.520;13.352;2024-03-08T08:18:16;50.63;;;25.92;;
31043;SDS011;17710;52.520;13.352;2024-03-08T08:20:46;47.45;;;24.45;;
31043;SDS011;17710;52.520;13.352;2024-03-08T08:23:12;48.90;;;24.40;;
31043;SDS011;17710;52.520;13.352;2024-03-08T08:25:40;43.50;;;23.15;;
31043;SDS011;17710;52.520;13.352;2024-03-08T08:28:06;52.60;;;25.92;;
31043;SDS011;17710;52.520;13.352;2024-03-08T08:30:33;48.95;;;24.73;;
31043;SDS011;17710;52.520;13.352;2024-03-08T08:33:00;45.53;;;23.00;;
31043;SDS011;17710;52.520;13.352;2024-03-08T08:35:26;43.80;;;22.40;;
31043;SDS011;17710;52.520;13.352;2024-03-08T08:37:55;42.88;;;21.38;;
31043;SDS011;17710;52.520;13.352;2024-03-08T08:40:23;40.00;;;18.85;;
31043;SDS011;17710;52.520;13.352;2024-03-08T08:42:50;36.22;;;19.00;;
31043;SDS011;17710;52.520;13.352;2024-03-08T08:45:17;36.72;;;18.92;;
31043;SDS011;17710;52.520;13.352;2024-03-08T08:47:44;37.35;;;18.73;;
31043;SDS011;17710;52.520;13.352;2024-03-08T08:50:12;36.60;;;19.55;;
31043;SDS011;17710;52.520;13.352;2024-03-08T08:52:39;41.53;;;19.23;;
31043;SDS011;17710;52.520;13.352;2024-03-08T08:55:09;35.20;;;19.10;;
31043;SDS011;17710;52.520;13.352;2024-03-08T08:57:39;37.83;;;18.48;;
31043;SDS011;17710;52.520;13.352;2024-03-08T09:00:06;37.72;;;18.70;;
31043;SDS011;17710;52.520;13.352;2024-03-08T09:02:34;35.40;;;19.08;;
31043;SDS011;17710;52.520;13.352;2024-03-08T09:05:02;38.28;;;19.10;;
31043;SDS011;17710;52.520;13.352;2024-03-08T09:07:33;37.38;;;19.00;;
31043;SDS011;17710;52.520;13.352;2024-03-08T09:10:00;36.72;;;19.95;;
31043;SDS011;17710;52.520;13.352;2024-03-08T09:12:28;39.88;;;18.95;;
31043;SDS011;17710;52.520;13.352;2024-03-08T09:14:57;43.20;;;19.83;;
31043;SDS011;17710;52.520;13.352;2024-03-08T09:17:24;35.83;;;19.42;;
31043;SDS011;17710;52.520;13.352;2024-03-08T09:19:51;39.67;;;20.52;;
31043;SDS011;17710;52.520;13.352;2024-03-08T09:22:19;36.22;;;19.27;;
31043;SDS011;17710;52.520;13.352;2024-03-08T09:24:46;36.05;;;19.58;;
31043;SDS011;17710;52.520;13.352;2024-03-08T09:27:12;40.33;;;21.02;;
31043;SDS011;17710;52.520;13.352;2024-03-08T09:29:40;37.97;;;20.30;;
31043;SDS011;17710;52.520;13.352;2024-03-08T09:32:06;37.05;;;20.17;;
31043;SDS011;17710;52.520;13.352;2024-03-08T09:34:39;35.60;;;19.13;;
31043;SDS011;17710;52.520;13.352;2024-03-08T09:37:11;42.05;;;19.77;;
31043;SDS011;17710;52.520;13.352;2024-03-08T09:39:37;41.38;;;20.23;;
31043;SDS011;17710;52.520;13.352;2024-03-08T09:42:04;38.53;;;19.67;;
31043;SDS011;17710;52.520;13.352;2024-03-08T09:44:31;44.70;;;20.63;;
31043;SDS011;17710;52.520;13.352;2024-03-08T09:47:02;38.70;;;18.63;;
31043;SDS011;17710;52.520;13.352;2024-03-08T09:49:31;38.13;;;19.65;;
31043;SDS011;17710;52.520;13.352;2024-03-08T09:51:58;36.40;;;19.05;;
31043;SDS011;17710;52.520;13.352;2024-03-08T09:54:25;32.65;;;18.08;;
31043;SDS011;17710;52.520;13.352;2024-03-08T09:56:52;37.22;;;18.60;;
31043;SDS011;17710;52.520;13.352;2024-03-08T09:59:18;36.50;;;18.98;;
31043;SDS011;17710;52.520;13.352;2024-03-08T10:02:04;36.08;;;18.85;;
31043;SDS011;17710;52.520;13.352;2024-03-08T10:04:31;36.53;;;19.55;;
31043;SDS011;17710;52.520;13.352;2024-03-08T10:06:57;37.85;;;18.90;;
31043;SDS011;17710;52.520;13.352;2024-03-08T10:09:24;33.05;;;18.50;;
31043;SDS011;17710;52.520;13.352;2024-03-08T10:11:53;38.78;;;18.35;;
31043;SDS011;17710;52.520;13.352;2024-03-08T10:14:21;34.42;;;18.63;;
31043;SDS011;17710;52.520;13.352;2024-03-08T10:16:48;35.67;;;19.20;;
31043;SDS011;17710;52.520;13.352;2024-03-08T10:19:16;31.80;;;16.42;;
31043;SDS011;17710;52.520;13.352;2024-03-08T10:21:48;36.30;;;18.17;;
31043;SDS011;17710;52.520;13.352;2024-03-08T10:24:15;34.78;;;17.65;;
31043;SDS011;17710;52.520;13.352;2024-03-08T10:26:42;32.65;;;17.75;;
31043;SDS011;17710;52.520;13.352;2024-03-08T10:29:09;35.30;;;19.17;;
31043;SDS011;17710;52.520;13.352;2024-03-08T10:31:40;32.53;;;17.15;;
31043;SDS011;17710;52.520;13.352;2024-03-08T10:34:09;31.98;;;17.00;;
31043;SDS011;17710;52.520;13.352;2024-03-08T10:36:36;34.05;;;18.30;;
31043;SDS011;17710;52.520;13.352;2024-03-08T10:39:05;30.50;;;16.80;;
31043;SDS011;17710;52.520;13.352;2024-03-08T10:41:47;32.78;;;16.80;;
31043;SDS011;17710;52.520;13.352;2024-03-08T10:44:23;31.90;;;16.48;;
31043;SDS011;17710;52.520;13.352;2024-03-08T10:47:00;30.60;;;16.58;;
31043;SDS011;17710;52.520;13.352;2024-03-08T10:49:31;33.65;;;16.98;;
31043;SDS011;17710;52.520;13.352;2024-03-08T10:52:01;33.33;;;17.00;;
31043;SDS011;17710;52.520;13.352;2024-03-08T10:54:30;32.85;;;16.88;;
31043;SDS011;17710;52.520;13.352;2024-03-08T10:56:58;34.67;;;16.42;;
31043;SDS011;17710;52.520;13.352;2024-03-08T10:59:26;28.27;;;14.90;;
31043;SDS011;17710;52.520;13.352;2024-03-08T11:01:53;30.25;;;15.52;;
31043;SDS011;17710;52.520;13.352;2024-03-08T11:04:20;30.02;;;15.63;;
31043;SDS011;17710;52.520;13.352;2024-03-08T11:06:48;31.35;;;15.73;;
31043;SDS011;17710;52.520;13.352;2024-03-08T11:09:43;29.92;;;14.70;;
31043;SDS011;17710;52.520;13.352;2024-03-08T11:12:23;24.38;;;14.02;;
31043;SDS011;17710;52.520;13.352;2024-03-08T11:14:51;27.45;;;15.43;;
31043;SDS011;17710;52.520;13.352;2024-03-08T11:17:25;27.15;;;15.23;;
31043;SDS011;17710;52.520;13.352;2024-03-08T11:20:07;28.85;;;15.15;;
31043;SDS011;17710;52.520;13.352;2024-03-08T11:22:40;27.17;;;14.63;;
31043;SDS011;17710;52.520;13.352;2024-03-08T11:25:29;27.02;;;14.23;;
31043;SDS011;17710;52.520;13.352;2024-03-08T11:28:10;25.70;;;14.02;;
31043;SDS011;17710;52.520;13.352;2024-03-08T11:30:42;27.20;;;16.23;;
31043;SDS011;17710;52.520;13.352;2024-03-08T11:33:13;31.85;;;14.43;;
31043;SDS011;17710;52.520;13.352;2024-03-08T11:35:41;31.55;;;15.68;;
31043;SDS011;17710;52.520;13.352;2024-03-08T11:38:10;29.00;;;14.30;;
31043;SDS011;17710;52.520;13.352;2024-03-08T11:40:39;30.40;;;15.15;;
31043;SDS011;17710;52.520;13.352;2024-03-08T11:43:07;26.63;;;13.98;;
31043;SDS011;17710;52.520;13.352;2024-03-08T11:45:35;26.98;;;14.68;;
31043;SDS011;17710;52.520;13.352;2024-03-08T11:48:02;34.08;;;15.57;;
31043;SDS011;17710;52.520;13.352;2024-03-08T11:50:29;27.90;;;15.00;;
31043;SDS011;17710;52.520;13.352;2024-03-08T11:53:00;23.50;;;13.20;;
31043;SDS011;17710;52.520;13.352;2024-03-08T11:55:28;26.90;;;14.32;;
31043;SDS011;17710;52.520;13.352;2024-03-08T11:58:00;29.45;;;15.35;;
31043;SDS011;17710;52.520;13.352;2024-03-08T12:00:30;31.05;;;14.60;;
31043;SDS011;17710;52.520;13.352;2024-03-08T12:03:03;24.58;;;13.85;;
31043;SDS011;17710;52.520;13.352;2024-03-08T12:05:31;28.90;;;13.68;;
31043;SDS011;17710;52.520;13.352;2024-03-08T12:07:59;25.13;;;14.65;;
31043;SDS011;17710;52.520;13.352;2024-03-08T12:10:26;29.92;;;15.38;;
31043;SDS011;17710;52.520;13.352;2024-03-08T12:12:54;30.00;;;15.27;;
31043;SDS011;17710;52.520;13.352;2024-03-08T12:15:22;25.88;;;14.77;;
31043;SDS011;17710;52.520;13.352;2024-03-08T12:17:50;28.73;;;14.93;;
31043;SDS011;17710;52.520;13.352;2024-03-08T12:20:18;24.90;;;14.95;;
31043;SDS011;17710;52.520;13.352;2024-03-08T12:22:47;31.85;;;16.75;;
31043;SDS011;17710;52.520;13.352;2024-03-08T12:25:14;30.15;;;15.55;;
31043;SDS011;17710;52.520;13.352;2024-03-08T12:27:42;29.75;;;15.10;;
31043;SDS011;17710;52.520;13.352;2024-03-08T12:30:17;28.40;;;16.23;;
31043;SDS011;17710;52.520;13.352;2024-03-08T12:32:48;29.83;;;15.20;;
31043;SDS011;17710;52.520;13.352;2024-03-08T12:35:18;27.60;;;15.57;;
31043;SDS011;17710;52.520;13.352;2024-03-08T12:37:48;30.92;;;14.55;;
31043;SDS011;17710;52.520;13.352;2024-03-08T12:40:16;27.90;;;13.88;;
31043;SDS011;17710;52.520;13.352;2024-03-08T12:42:43;28.73;;;15.38;;
31043;SDS011;17710;52.520;13.352;2024-03-08T12:45:12;26.10;;;15.23;;
31043;SDS011;17710;52.520;13.352;2024-03-08T12:47:42;28.58;;;15.07;;
31043;SDS011;17710;52.520;13.352;2024-03-08T12:50:11;22.95;;;13.70;;
31043;SDS011;17710;52.520;13.352;2024-03-08T12:52:38;28.75;;;14.85;;
31043;SDS011;17710;52.520;13.352;2024-03-08T12:55:05;26.80;;;14.77;;
31043;SDS011;17710;52.520;13.352;2024-03-08T12:57:33;28.50;;;15.30;;
31043;SDS011;17710;52.520;13.352;2024-03-08T13:00:01;27.25;;;15.75;;
31043;SDS011;17710;52.520;13.352;2024-03-08T13:02:29;27.40;;;14.77;;
31043;SDS011;17710;52.520;13.352;2024-03-08T13:04:57;25.67;;;14.68;;
31043;SDS011;17710;52.520;13.352;2024-03-08T13:07:25;25.02;;;14.30;;
31043;SDS011;17710;52.520;13.352;2024-03-08T13:09:52;33.20;;;15.35;;
31043;SDS011;17710;52.520;13.352;2024-03-08T13:12:19;26.45;;;14.45;;
31043;SDS011;17710;52.520;13.352;2024-03-08T13:14:46;29.23;;;15.43;;
31043;SDS011;17710;52.520;13.352;2024-03-08T13:17:12;26.98;;;14.23;;
31043;SDS011;17710;52.520;13.352;2024-03-08T13:19:39;31.55;;;15.95;;
31043;SDS011;17710;52.520;13.352;2024-03-08T13:22:06;33.78;;;14.80;;
31043;SDS011;17710;52.520;13.352;2024-03-08T13:24:34;28.77;;;14.27;;
31043;SDS011;17710;52.520;13.352;2024-03-08T13:27:00;26.35;;;13.98;;
31043;SDS011;17710;52.520;13.352;2024-03-08T13:29:27;23.58;;;14.75;;
31043;SDS011;17710;52.520;13.352;2024-03-08T13:31:53;27.23;;;14.95;;
31043;SDS011;17710;52.520;13.352;2024-03-08T13:34:21;28.70;;;15.52;;
31043;SDS011;17710;52.520;13.352;2024-03-08T13:36:54;24.70;;;13.70;;
31043;SDS011;17710;52.520;13.352;2024-03-08T13:39:25;25.60;;;13.90;;
31043;SDS011;17710;52.520;13.352;2024-03-08T13:41:52;23.05;;;14.00;;
31043;SDS011;17710;52.520;13.352;2024-03-08T13:44:19;24.15;;;13.40;;
31043;SDS011;17710;52.520;13.352;2024-03-08T13:46:46;24.80;;;13.48;;
31043;SDS011;17710;52.520;13.352;2024-03-08T13:49:12;25.15;;;14.75;;
31043;SDS011;17710;52.520;13.352;2024-03-08T13:51:39;21.38;;;13.27;;
31043;SDS011;17710;52.520;13.352;2024-03-08T13:54:05;24.70;;;13.85;;
31043;SDS011;17710;52.520;13.352;2024-03-08T13:56:32;29.58;;;14.13;;
31043;SDS011;17710;52.520;13.352;2024-03-08T13:59:00;25.73;;;14.13;;
31043;SDS011;17710;52.520;13.352;2024-03-08T14:01:27;25.80;;;13.23;;
31043;SDS011;17710;52.520;13.352;2024-03-08T14:03:55;23.73;;;13.23;;
31043;SDS011;17710;52.520;13.352;2024-03-08T14:06:21;21.88;;;12.13;;
31043;SDS011;17710;52.520;13.352;2024-03-08T14:08:50;20.85;;;12.77;;
31043;SDS011;17710;52.520;13.352;2024-03-08T14:11:18;26.35;;;13.48;;
31043;SDS011;17710;52.520;13.352;2024-03-08T14:13:45;22.77;;;12.38;;
31043;SDS011;17710;52.520;13.352;2024-03-08T14:16:13;21.63;;;12.18;;